Time;durP1;ratioP1;P1;durP2;ratioP2;P2;SDS_P1;SDS_P2;PMS_P1;PMS_P2;Temp;Humidity;BMP_temperature;BMP_pressure;BME280_temperature;BME280_humidity;BME280_pressure;Samples;Min_cycle;Max_cycle;Signal;HPM_P1;HPM_P2
2022/09/24 00:00:57;;;;;;;2.33;1.70;;;21.80;99.90;;;;;;4982832;28;20207;-96
2022/09/24 00:03:29;;;;;;;3.53;1.60;;;21.70;99.90;;;;;;4978438;28;20306;-96
2022/09/24 00:06:03;;;;;;;2.23;1.57;;;21.70;99.90;;;;;;4979118;28;20604;-96
2022/09/24 00:08:38;;;;;;;3.20;1.67;;;21.60;99.90;;;;;;4981631;28;20219;-96
2022/09/24 00:11:11;;;;;;;3.17;1.60;;;21.50;99.90;;;;;;4978609;28;20382;-95
2022/09/24 00:13:44;;;;;;;3.57;1.83;;;21.30;99.90;;;;;;4976777;28;20637;-96
2022/09/24 00:16:17;;;;;;;3.53;1.40;;;21.30;99.90;;;;;;4976474;28;20586;-96
2022/09/24 00:18:53;;;;;;;3.27;1.70;;;21.30;99.90;;;;;;4977530;28;20230;-96
2022/09/24 00:21:27;;;;;;;3.50;1.83;;;21.10;99.90;;;;;;4976524;28;20297;-96
2022/09/24 00:24:02;;;;;;;2.17;1.57;;;21.00;99.90;;;;;;4977718;28;20206;-95
2022/09/24 00:26:50;;;;;;;2.40;1.53;;;21.00;99.90;;;;;;4978458;28;20206;-95
2022/09/24 00:29:24;;;;;;;3.33;1.83;;;21.00;99.90;;;;;;4977469;28;20251;-96
2022/09/24 00:31:57;;;;;;;2.70;1.50;;;21.00;99.90;;;;;;4976569;28;20679;-96
2022/09/24 00:34:29;;;;;;;3.80;1.67;;;21.00;99.90;;;;;;4977061;28;20214;-96
2022/09/24 00:37:01;;;;;;;2.83;1.50;;;20.80;99.90;;;;;;4976540;28;20212;-96
2022/09/24 00:39:39;;;;;;;3.03;1.70;;;20.70;99.90;;;;;;4979546;28;20227;-96
2022/09/24 00:42:11;;;;;;;3.13;1.73;;;20.90;99.90;;;;;;4982302;28;20206;-94
2022/09/24 00:44:59;;;;;;;3.63;1.90;;;20.90;99.90;;;;;;4984823;28;20215;-96
2022/09/24 00:47:35;;;;;;;3.73;1.57;;;20.70;99.90;;;;;;4986037;28;20215;-96
2022/09/24 00:50:21;;;;;;;2.20;1.90;;;20.70;99.90;;;;;;4986738;28;20224;-96
2022/09/24 00:52:57;;;;;;;2.23;1.90;;;20.50;99.90;;;;;;4982212;28;20223;-96
2022/09/24 00:55:38;;;;;;;3.43;1.70;;;20.40;99.90;;;;;;4984459;28;20317;-95
2022/09/24 00:58:13;;;;;;;2.90;2.00;;;20.40;99.90;;;;;;4983167;28;20211;-96
2022/09/24 01:00:46;;;;;;;4.87;1.60;;;20.40;99.90;;;;;;4982646;28;20244;-96
2022/09/24 01:03:20;;;;;;;4.93;1.73;;;20.40;99.90;;;;;;4984033;28;20231;-96
2022/09/24 01:05:54;;;;;;;2.70;1.73;;;20.30;99.90;;;;;;4983661;28;20211;-96
2022/09/24 01:08:26;;;;;;;3.23;1.80;;;20.30;99.90;;;;;;4977568;28;21834;-95
2022/09/24 01:11:13;;;;;;;3.30;2.00;;;20.30;99.90;;;;;;4980299;28;20222;-96
2022/09/24 01:14:28;;;;;;;2.40;1.80;;;20.20;99.90;;;;;;4986286;28;20195;-96
2022/09/24 01:17:16;;;;;;;2.47;1.80;;;20.10;99.90;;;;;;4992046;28;20200;-96
2022/09/24 01:20:30;;;;;;;2.50;1.90;;;19.90;99.90;;;;;;5281564;23;20238;-96
2022/09/24 01:23:26;;;;;;;3.30;1.70;;;19.60;99.90;;;;;;4943480;29;20212;-90
2022/09/24 01:26:17;;;;;;;2.93;1.80;;;19.60;99.90;;;;;;4983288;28;20226;-91
2022/09/24 01:29:05;;;;;;;2.77;1.70;;;19.50;99.90;;;;;;4982487;28;20211;-96
2022/09/24 01:31:45;;;;;;;5.33;2.00;;;19.40;99.90;;;;;;4985153;28;20263;-96
2022/09/24 01:34:23;;;;;;;2.50;1.70;;;19.40;99.90;;;;;;4991069;28;20214;-96
2022/09/24 01:36:59;;;;;;;3.23;2.00;;;19.30;99.90;;;;;;4991235;28;20202;-96
2022/09/24 01:39:32;;;;;;;3.67;1.97;;;19.20;99.90;;;;;;4988404;28;20227;-96
2022/09/24 01:45:19;;;;;;;2.87;1.80;;;19.10;99.90;;;;;;4957780;28;20220;-96
2022/09/24 02:11:18;;;;;;;3.87;2.00;;;18.30;99.90;;;;;;5605365;23;20219;-96
2022/09/24 02:13:59;;;;;;;7.10;2.00;;;18.10;99.90;;;;;;5435428;23;20250;-96
2022/09/24 02:40:54;;;;;;;3.97;2.17;;;17.40;99.90;;;;;;5499658;23;20261;-89
2022/09/24 02:43:34;;;;;;;3.23;2.37;;;17.40;99.90;;;;;;4976034;28;20215;-96
2022/09/24 02:46:07;;;;;;;4.40;2.10;;;17.30;99.90;;;;;;4969572;28;20691;-94
2022/09/24 02:48:38;;;;;;;3.70;2.33;;;17.30;99.90;;;;;;4967903;28;20222;-95
2022/09/24 02:51:09;;;;;;;9.03;2.50;;;17.30;99.90;;;;;;4978986;28;20712;-95
2022/09/24 02:53:41;;;;;;;7.27;2.20;;;17.30;99.90;;;;;;4977124;28;20674;-96
2022/09/24 02:56:15;;;;;;;4.70;2.60;;;17.30;99.90;;;;;;4972523;28;20207;-96
2022/09/24 02:58:47;;;;;;;4.63;2.20;;;17.40;99.90;;;;;;4963791;28;20211;-95
2022/09/24 03:01:18;;;;;;;6.23;2.40;;;17.40;99.90;;;;;;4969957;28;20604;-93
2022/09/24 03:03:50;;;;;;;4.27;2.30;;;17.50;99.90;;;;;;4977283;28;20207;-95
2022/09/24 03:06:22;;;;;;;8.97;3.00;;;17.50;99.90;;;;;;4975473;28;20188;-95
2022/09/24 03:11:31;;;;;;;6.87;2.50;;;17.60;99.90;;;;;;4994290;28;20222;-95
2022/09/24 03:19:13;;;;;;;5.70;2.47;;;17.50;99.90;;;;;;5313277;23;20337;-96
2022/09/24 03:21:45;;;;;;;3.87;2.80;;;17.40;99.90;;;;;;4990185;28;20244;-96
2022/09/24 03:26:56;;;;;;;3.60;2.13;;;17.30;99.90;;;;;;5312222;23;20254;-96
2022/09/24 03:32:14;;;;;;;5.10;2.37;;;17.30;99.90;;;;;;4937642;29;20218;-95
2022/09/24 03:34:47;;;;;;;4.17;2.53;;;17.20;99.90;;;;;;4929649;29;20212;-95
2022/09/24 03:37:20;;;;;;;5.20;2.97;;;17.10;99.90;;;;;;4940549;29;20216;-96
2022/09/24 03:39:52;;;;;;;4.27;2.47;;;17.10;99.90;;;;;;4940430;29;20232;-94
2022/09/24 03:42:30;;;;;;;4.03;2.50;;;17.00;99.90;;;;;;4943385;28;20239;-96
2022/09/24 03:50:20;;;;;;;4.30;2.63;;;16.80;99.90;;;;;;5689995;23;20254;-96
2022/09/24 03:58:14;;;;;;;3.10;2.20;;;16.60;99.90;;;;;;5317016;23;20290;-94
2022/09/24 04:00:49;;;;;;;4.67;2.17;;;16.50;99.90;;;;;;4971180;28;20611;-96
2022/09/24 04:03:22;;;;;;;4.80;2.10;;;16.50;99.90;;;;;;4967474;28;20211;-95
2022/09/24 04:08:30;;;;;;;5.97;3.27;;;16.50;99.90;;;;;;5308166;23;20518;-95
2022/09/24 04:11:06;;;;;;;6.33;3.23;;;16.50;99.90;;;;;;4977509;28;20225;-96
2022/09/24 04:13:43;;;;;;;3.10;2.20;;;16.40;99.90;;;;;;4975197;28;20207;-94
2022/09/24 04:16:25;;;;;;;5.07;2.77;;;16.40;99.90;;;;;;4973179;28;20219;-95
2022/09/24 04:18:57;;;;;;;6.43;2.60;;;16.40;99.90;;;;;;4975753;28;20694;-95
2022/09/24 04:21:29;;;;;;;4.77;2.30;;;16.40;99.90;;;;;;4971042;28;20239;-95
2022/09/24 04:24:01;;;;;;;6.20;2.40;;;16.50;99.90;;;;;;4973138;28;20222;-95
2022/09/24 04:26:33;;;;;;;3.57;2.27;;;16.50;99.90;;;;;;4975850;28;20199;-95
2022/09/24 04:29:06;;;;;;;2.97;2.20;;;16.50;99.90;;;;;;4980959;28;20660;-95
2022/09/24 04:31:39;;;;;;;3.40;2.63;;;16.50;99.90;;;;;;4976017;28;20751;-95
2022/09/24 04:34:12;;;;;;;11.10;2.83;;;16.50;99.90;;;;;;4977325;28;20219;-93
2022/09/24 04:36:44;;;;;;;3.17;2.87;;;16.40;99.90;;;;;;4983443;28;20200;-95
2022/09/24 04:39:17;;;;;;;4.27;2.73;;;16.40;99.90;;;;;;4976656;28;20203;-96
2022/09/24 04:41:48;;;;;;;4.27;2.73;;;16.50;99.90;;;;;;4978212;28;20241;-94
2022/09/24 04:44:23;;;;;;;4.63;3.00;;;16.30;99.90;;;;;;4976184;28;20615;-94
2022/09/24 04:47:01;;;;;;;4.50;2.80;;;16.30;99.90;;;;;;4965526;28;21121;-96
2022/09/24 04:49:33;;;;;;;3.53;2.83;;;16.20;99.90;;;;;;4970292;28;20198;-95
2022/09/24 04:52:04;;;;;;;5.43;2.60;;;16.10;99.90;;;;;;4971532;28;20233;-95
2022/09/24 04:54:37;;;;;;;4.30;2.60;;;16.00;99.90;;;;;;4963280;28;20208;-94
2022/09/24 04:57:07;;;;;;;4.80;2.73;;;15.90;99.90;;;;;;4960245;28;20292;-95
2022/09/24 04:59:41;;;;;;;4.50;2.70;;;15.80;99.90;;;;;;4972240;28;20227;-95
2022/09/24 05:02:12;;;;;;;6.37;3.10;;;15.70;99.90;;;;;;4978677;28;20231;-95
2022/09/24 05:04:43;;;;;;;5.30;2.63;;;15.70;99.90;;;;;;4975169;28;20195;-95
2022/09/24 05:07:15;;;;;;;5.10;2.90;;;15.50;99.90;;;;;;4960304;28;20208;-94
2022/09/24 05:09:46;;;;;;;4.17;3.23;;;15.60;99.90;;;;;;4961660;28;20204;-95
2022/09/24 05:12:19;;;;;;;5.90;2.90;;;15.50;99.90;;;;;;4977913;28;20211;-94
2022/09/24 05:14:53;;;;;;;3.10;2.33;;;15.50;99.90;;;;;;4978022;28;20211;-94
2022/09/24 05:17:27;;;;;;;6.17;2.93;;;15.40;99.90;;;;;;4978710;28;20586;-95
2022/09/24 05:20:00;;;;;;;8.63;3.17;;;15.40;99.90;;;;;;4979113;28;20215;-95
2022/09/24 05:22:31;;;;;;;3.57;2.93;;;15.20;99.90;;;;;;4970186;28;20581;-96
2022/09/24 05:25:02;;;;;;;5.33;2.93;;;15.20;99.90;;;;;;4959452;28;20207;-95
2022/09/24 05:27:31;;;;;;;5.43;3.13;;;15.20;99.90;;;;;;4974169;28;20207;-95
2022/09/24 05:30:06;;;;;;;6.03;2.73;;;15.10;99.90;;;;;;4978184;28;20671;-95
2022/09/24 05:32:37;;;;;;;4.70;2.87;;;15.10;99.90;;;;;;4977909;28;20203;-94
2022/09/24 05:35:09;;;;;;;6.20;3.03;;;15.10;99.90;;;;;;4977439;28;20645;-94
2022/09/24 05:37:41;;;;;;;4.50;2.70;;;15.10;99.90;;;;;;4978761;28;20221;-94
2022/09/24 05:43:05;;;;;;;3.23;2.57;;;15.00;99.90;;;;;;4971395;28;20219;-94
2022/09/24 05:45:40;;;;;;;3.23;2.53;;;14.90;99.90;;;;;;4966087;28;20215;-94
2022/09/24 05:48:12;;;;;;;5.47;2.53;;;14.90;99.90;;;;;;4978769;28;20203;-94
2022/09/24 05:50:43;;;;;;;4.83;2.50;;;15.00;99.90;;;;;;4985578;28;20313;-94
2022/09/24 05:53:14;;;;;;;5.33;2.37;;;15.00;99.90;;;;;;5001870;28;20214;-93
2022/09/24 05:55:45;;;;;;;4.57;2.77;;;15.20;99.90;;;;;;5000091;28;20221;-93
2022/09/24 05:58:17;;;;;;;5.00;2.87;;;15.20;99.90;;;;;;4990276;28;20219;-93
2022/09/24 06:00:50;;;;;;;3.97;2.70;;;15.20;99.90;;;;;;4972569;28;20250;-94
2022/09/24 06:03:22;;;;;;;7.03;2.50;;;15.20;99.90;;;;;;4979969;28;20218;-93
2022/09/24 06:05:55;;;;;;;3.83;2.60;;;15.10;99.90;;;;;;4978954;28;20215;-94
2022/09/24 06:08:27;;;;;;;2.87;2.53;;;15.10;99.90;;;;;;4981944;28;20227;-95
2022/09/24 06:11:01;;;;;;;4.03;2.30;;;15.10;99.90;;;;;;4980558;28;20217;-94
2022/09/24 06:13:33;;;;;;;6.50;2.30;;;15.10;99.90;;;;;;4977307;28;20226;-94
2022/09/24 06:16:11;;;;;;;4.23;2.47;;;15.10;99.90;;;;;;4974734;28;20202;-94
2022/09/24 06:18:45;;;;;;;2.60;2.40;;;15.00;99.90;;;;;;4983349;28;20207;-95
2022/09/24 06:21:18;;;;;;;4.20;2.47;;;14.90;99.90;;;;;;4975987;28;20227;-94
2022/09/24 06:23:50;;;;;;;3.90;2.30;;;14.80;99.90;;;;;;4976213;28;20581;-94
2022/09/24 06:26:24;;;;;;;4.53;2.73;;;14.80;99.90;;;;;;4976304;28;20203;-94
2022/09/24 06:28:56;;;;;;;3.13;2.20;;;14.70;99.90;;;;;;4977849;28;20297;-94
2022/09/24 06:31:35;;;;;;;3.20;2.50;;;14.70;99.90;;;;;;4975217;28;20234;-93
2022/09/24 06:34:06;;;;;;;6.27;3.00;;;14.70;99.90;;;;;;4978052;28;20207;-93
2022/09/24 06:36:39;;;;;;;4.93;2.90;;;14.60;99.90;;;;;;4975125;28;20302;-94
2022/09/24 06:39:10;;;;;;;3.73;2.43;;;14.50;99.90;;;;;;4974445;28;20293;-92
2022/09/24 06:41:42;;;;;;;3.47;2.60;;;14.50;99.90;;;;;;4973811;28;20223;-93
2022/09/24 06:44:14;;;;;;;5.87;2.53;;;14.50;99.90;;;;;;4972142;28;20211;-92
2022/09/24 06:46:48;;;;;;;4.70;2.77;;;14.40;99.90;;;;;;4974879;28;20207;-92
2022/09/24 06:49:21;;;;;;;4.80;2.50;;;14.40;99.90;;;;;;4974286;28;20687;-94
2022/09/24 06:51:54;;;;;;;4.27;2.67;;;14.40;99.90;;;;;;4972369;28;20214;-93
2022/09/24 06:54:27;;;;;;;3.73;2.77;;;14.40;99.90;;;;;;4973414;28;20226;-95
2022/09/24 06:56:58;;;;;;;6.30;3.13;;;14.30;99.90;;;;;;4973747;28;20213;-93
2022/09/24 06:59:29;;;;;;;6.97;3.20;;;14.30;99.90;;;;;;4974127;28;20206;-93
2022/09/24 07:02:03;;;;;;;5.43;3.00;;;14.30;99.90;;;;;;4973157;28;20238;-92
2022/09/24 07:04:35;;;;;;;3.80;2.63;;;14.30;99.90;;;;;;4973125;28;20225;-93
2022/09/24 07:09:54;;;;;;;3.97;2.53;;;14.50;99.90;;;;;;4974343;28;20253;-94
2022/09/24 07:12:25;;;;;;;4.73;2.77;;;14.60;99.90;;;;;;4973279;28;20210;-93
2022/09/24 07:14:57;;;;;;;7.33;2.67;;;14.60;99.90;;;;;;4973469;28;20229;-93
2022/09/24 07:17:31;;;;;;;4.93;2.57;;;14.60;99.90;;;;;;4972750;28;20233;-94
2022/09/24 07:20:03;;;;;;;6.10;2.70;;;14.70;99.90;;;;;;4972986;28;20225;-94
2022/09/24 07:22:40;;;;;;;4.43;2.80;;;14.70;99.90;;;;;;4972790;28;20317;-94
2022/09/24 07:25:13;;;;;;;3.03;2.50;;;14.60;99.90;;;;;;4973616;28;20221;-94
2022/09/24 07:27:44;;;;;;;5.97;2.80;;;14.60;99.90;;;;;;4972804;28;20221;-94
2022/09/24 07:30:16;;;;;;;3.97;2.43;;;14.60;99.90;;;;;;4973015;28;20221;-94
2022/09/24 07:32:55;;;;;;;5.63;2.60;;;14.60;99.90;;;;;;4970176;28;20664;-94
2022/09/24 07:35:26;;;;;;;4.77;3.00;;;14.60;99.90;;;;;;4971924;28;20206;-94
2022/09/24 07:38:01;;;;;;;4.33;2.90;;;14.60;99.90;;;;;;4978063;28;20207;-94
2022/09/24 07:40:35;;;;;;;8.17;3.70;;;14.60;99.90;;;;;;4971915;28;20258;-94
2022/09/24 07:43:12;;;;;;;7.10;3.70;;;14.70;99.90;;;;;;4971855;28;20257;-94
2022/09/24 07:45:44;;;;;;;3.40;3.10;;;14.60;99.90;;;;;;4976896;28;20208;-94
2022/09/24 07:48:17;;;;;;;8.00;3.37;;;14.60;99.90;;;;;;4978441;28;20770;-93
2022/09/24 07:50:48;;;;;;;4.57;2.70;;;14.70;99.90;;;;;;4974606;28;20278;-94
2022/09/24 07:53:20;;;;;;;3.93;3.03;;;14.70;99.90;;;;;;4973612;28;20221;-94
2022/09/24 07:55:51;;;;;;;4.67;2.83;;;14.70;99.90;;;;;;4975330;28;20224;-93
2022/09/24 07:58:22;;;;;;;3.27;2.50;;;14.70;99.90;;;;;;4957958;29;20307;-93
2022/09/24 08:00:54;;;;;;;4.30;2.70;;;14.70;99.90;;;;;;4957039;29;20215;-94
2022/09/24 08:03:30;;;;;;;3.37;2.70;;;14.70;99.90;;;;;;4955996;29;20775;-94
2022/09/24 08:06:01;;;;;;;4.03;2.70;;;14.60;99.90;;;;;;4956583;28;20219;-93
2022/09/24 08:08:32;;;;;;;4.27;2.63;;;14.50;99.90;;;;;;4956687;29;20247;-94
2022/09/24 08:11:05;;;;;;;4.97;2.77;;;14.50;99.90;;;;;;4956664;28;20204;-94
2022/09/24 08:13:36;;;;;;;4.73;2.73;;;14.40;99.90;;;;;;4956564;28;20215;-94
2022/09/24 08:16:09;;;;;;;2.83;2.40;;;14.30;99.90;;;;;;4959429;28;20226;-94
2022/09/24 08:18:45;;;;;;;3.60;2.50;;;14.30;99.90;;;;;;4975145;28;20265;-94
2022/09/24 08:21:16;;;;;;;7.70;2.60;;;14.30;99.90;;;;;;4957655;28;20249;-94
2022/09/24 08:23:48;;;;;;;7.07;2.63;;;14.20;99.90;;;;;;4968125;28;20249;-93
2022/09/24 08:26:19;;;;;;;4.57;2.80;;;14.20;99.90;;;;;;4991948;28;20287;-95
2022/09/24 08:28:51;;;;;;;3.07;2.60;;;14.20;99.90;;;;;;4995559;28;20203;-94
2022/09/24 08:31:24;;;;;;;5.00;2.73;;;14.20;99.90;;;;;;4993590;28;20214;-94
2022/09/24 08:33:58;;;;;;;4.03;2.90;;;14.10;99.90;;;;;;4992019;28;20197;-95
2022/09/24 08:36:29;;;;;;;4.40;2.60;;;14.10;99.90;;;;;;4981450;28;20203;-93
2022/09/24 08:39:00;;;;;;;3.97;2.37;;;14.00;99.90;;;;;;4983525;28;20221;-92
2022/09/24 08:41:48;;;;;;;4.07;2.83;;;14.00;99.90;;;;;;4983610;28;20222;-94
2022/09/24 08:47:26;;;;;;;2.50;2.30;;;13.90;99.90;;;;;;4975739;28;20217;-95
2022/09/24 08:50:08;;;;;;;4.83;2.60;;;13.90;99.90;;;;;;4969318;28;20219;-93
2022/09/24 08:53:07;;;;;;;4.57;2.50;;;13.90;99.90;;;;;;4964813;28;20568;-94
2022/09/24 08:55:41;;;;;;;5.30;2.67;;;13.90;99.90;;;;;;4967632;28;20246;-94
2022/09/24 08:58:36;;;;;;;3.17;2.63;;;13.80;99.90;;;;;;4970011;28;20228;-95
2022/09/24 09:01:24;;;;;;;5.20;2.87;;;13.80;99.90;;;;;;4958310;28;20192;-93
2022/09/24 09:04:02;;;;;;;4.07;2.30;;;13.80;99.90;;;;;;4975523;28;20252;-93
2022/09/24 09:07:00;;;;;;;4.63;2.60;;;13.70;99.90;;;;;;4985621;28;20286;-92
2022/09/24 09:09:42;;;;;;;4.47;2.40;;;13.70;99.90;;;;;;4981983;28;20282;-94
2022/09/24 09:12:18;;;;;;;7.33;2.80;;;13.70;99.90;;;;;;4984299;28;20214;-95
2022/09/24 09:14:56;;;;;;;5.07;2.40;;;13.60;99.90;;;;;;4989673;28;20268;-94
2022/09/24 09:17:46;;;;;;;2.80;2.40;;;13.50;99.90;;;;;;4996432;28;20247;-93
2022/09/24 09:20:21;;;;;;;5.30;2.63;;;13.50;99.90;;;;;;4978967;28;20242;-94
2022/09/24 09:22:55;;;;;;;5.10;2.50;;;13.50;99.90;;;;;;4982735;28;21010;-94
2022/09/24 09:25:29;;;;;;;3.97;2.63;;;13.50;99.90;;;;;;4964418;28;20211;-93
2022/09/24 09:28:03;;;;;;;4.03;2.70;;;13.50;99.90;;;;;;4984514;28;20207;-94
2022/09/24 09:30:42;;;;;;;3.97;3.10;;;13.40;99.90;;;;;;4980861;28;20228;-94
2022/09/24 09:33:31;;;;;;;3.23;2.67;;;13.50;99.90;;;;;;4975974;28;20223;-93
2022/09/24 09:36:20;;;;;;;4.03;2.67;;;13.50;99.90;;;;;;4970206;28;20203;-93
2022/09/24 09:39:02;;;;;;;4.33;2.57;;;13.50;99.90;;;;;;4981026;28;20210;-95
2022/09/24 09:41:41;;;;;;;4.77;2.77;;;13.60;99.90;;;;;;4970053;28;20270;-95
2022/09/24 09:44:17;;;;;;;5.27;2.67;;;13.60;99.90;;;;;;4978813;28;20232;-94
2022/09/24 09:46:52;;;;;;;4.30;2.90;;;13.70;99.90;;;;;;4969231;28;20211;-94
2022/09/24 09:49:27;;;;;;;4.83;2.50;;;13.80;99.90;;;;;;4962121;28;20223;-94
2022/09/24 09:52:01;;;;;;;5.07;2.90;;;13.80;99.90;;;;;;4958345;28;20258;-94
2022/09/24 09:54:43;;;;;;;5.40;3.03;;;13.80;99.90;;;;;;4977643;28;20671;-94
2022/09/24 09:57:17;;;;;;;4.07;2.87;;;13.90;99.90;;;;;;4978154;28;20221;-94
2022/09/24 09:59:50;;;;;;;5.67;2.70;;;13.90;99.90;;;;;;4977870;28;20207;-92
2022/09/24 10:02:25;;;;;;;3.70;2.77;;;14.00;99.90;;;;;;4976039;28;20211;-93
2022/09/24 10:04:58;;;;;;;3.43;3.00;;;14.00;99.90;;;;;;4974826;28;20238;-94
2022/09/24 10:07:31;;;;;;;5.07;3.47;;;14.00;99.90;;;;;;4977018;28;20222;-93
2022/09/24 10:10:19;;;;;;;4.13;2.57;;;14.00;99.90;;;;;;4977204;28;20285;-93
2022/09/24 10:12:55;;;;;;;4.57;3.07;;;14.00;99.90;;;;;;4958340;28;20607;-93
2022/09/24 10:15:26;;;;;;;4.00;3.00;;;14.00;99.90;;;;;;4967760;28;20253;-93
2022/09/24 10:18:01;;;;;;;4.07;2.90;;;14.10;99.90;;;;;;4967321;28;20290;-94
2022/09/24 10:20:34;;;;;;;6.97;3.50;;;14.10;99.90;;;;;;4964529;28;20582;-94
2022/09/24 10:23:09;;;;;;;3.40;2.83;;;14.10;99.90;;;;;;4977143;28;20210;-94
2022/09/24 10:25:50;;;;;;;6.03;3.20;;;14.10;99.90;;;;;;4977511;28;20254;-94
2022/09/24 10:31:14;;;;;;;5.57;2.97;;;14.20;99.90;;;;;;4977329;28;20265;-95
2022/09/24 10:33:48;;;;;;;5.07;3.37;;;14.30;99.90;;;;;;4973101;28;20226;-95
2022/09/24 10:36:22;;;;;;;4.90;2.80;;;14.30;99.90;;;;;;4977070;28;20207;-94
2022/09/24 10:39:04;;;;;;;4.67;3.00;;;14.30;99.90;;;;;;4977386;28;20584;-93
2022/09/24 10:41:37;;;;;;;3.17;2.80;;;14.30;99.90;;;;;;4976195;28;20215;-95
2022/09/24 10:44:12;;;;;;;4.27;3.10;;;14.40;99.90;;;;;;4976631;28;20371;-95
2022/09/24 10:47:14;;;;;;;4.73;3.23;;;14.40;99.90;;;;;;4976794;28;20206;-93
2022/09/24 10:50:11;;;;;;;4.77;3.30;;;14.40;99.90;;;;;;4962179;28;20214;-94
2022/09/24 10:52:48;;;;;;;4.00;3.10;;;14.40;99.90;;;;;;4962431;28;20218;-95
2022/09/24 10:55:51;;;;;;;5.37;2.90;;;14.40;99.90;;;;;;4956554;29;20230;-94
2022/09/24 10:58:35;;;;;;;5.47;3.90;;;14.50;99.90;;;;;;4958485;28;20689;-93
2022/09/24 11:01:15;;;;;;;5.57;3.50;;;14.50;99.90;;;;;;4974528;28;20211;-93
2022/09/24 11:04:00;;;;;;;5.93;3.43;;;14.50;99.90;;;;;;4970997;28;20250;-93
2022/09/24 11:06:49;;;;;;;6.17;3.50;;;14.50;99.90;;;;;;4985762;28;20203;-95
2022/09/24 11:09:31;;;;;;;7.77;3.33;;;14.50;99.90;;;;;;4980576;28;20253;-93
2022/09/24 11:12:14;;;;;;;3.73;3.33;;;14.50;99.90;;;;;;4959702;28;20265;-94
2022/09/24 11:15:03;;;;;;;6.67;3.53;;;14.50;99.90;;;;;;4959996;28;20707;-94
2022/09/24 11:17:49;;;;;;;3.67;2.97;;;14.50;99.90;;;;;;4974851;28;20217;-94
2022/09/24 11:20:30;;;;;;;6.43;3.63;;;14.60;99.90;;;;;;4974766;28;20227;-94
2022/09/24 11:23:15;;;;;;;5.60;3.43;;;14.60;99.90;;;;;;4980460;28;20205;-94
2022/09/24 11:25:52;;;;;;;3.47;3.00;;;14.60;99.90;;;;;;4977835;28;20239;-94
2022/09/24 11:28:46;;;;;;;4.33;3.10;;;14.60;99.90;;;;;;4975587;28;20207;-94
2022/09/24 11:31:26;;;;;;;7.37;3.57;;;14.60;99.90;;;;;;4976712;28;20587;-93
2022/09/24 11:34:20;;;;;;;5.07;3.10;;;14.60;99.90;;;;;;4977702;28;20207;-93
2022/09/24 11:37:08;;;;;;;5.00;3.27;;;14.60;99.90;;;;;;4976741;28;20208;-93
2022/09/24 11:39:55;;;;;;;5.07;3.10;;;14.60;99.90;;;;;;4973180;28;20282;-94
2022/09/24 11:42:30;;;;;;;6.10;3.20;;;14.60;99.90;;;;;;4956912;28;20214;-94
2022/09/24 11:45:12;;;;;;;5.97;2.97;;;14.60;99.90;;;;;;4956719;28;20696;-94
2022/09/24 11:48:04;;;;;;;4.50;2.73;;;14.50;99.90;;;;;;4968798;28;20315;-94
2022/09/24 11:50:45;;;;;;;8.07;3.20;;;14.40;99.90;;;;;;4980158;28;20219;-94
2022/09/24 11:53:24;;;;;;;5.00;3.10;;;14.30;99.90;;;;;;4979109;28;20206;-95
2022/09/24 11:56:00;;;;;;;4.97;2.90;;;14.20;99.90;;;;;;4977054;28;20317;-94
2022/09/24 11:58:36;;;;;;;6.77;3.23;;;14.10;99.90;;;;;;4985581;28;20265;-94
2022/09/24 12:01:15;;;;;;;8.07;3.07;;;14.00;99.90;;;;;;4988470;28;20207;-94
2022/09/24 12:03:54;;;;;;;4.17;3.03;;;13.90;99.90;;;;;;4990976;28;20241;-93
2022/09/24 12:06:31;;;;;;;4.07;3.07;;;13.80;99.90;;;;;;4973754;28;20275;-93
2022/09/24 12:09:16;;;;;;;3.40;3.10;;;13.80;99.90;;;;;;4958106;28;20219;-93
2022/09/24 12:11:51;;;;;;;3.93;3.00;;;13.70;99.90;;;;;;4962796;28;20221;-93
2022/09/24 12:14:26;;;;;;;3.47;2.77;;;13.60;99.90;;;;;;4971787;28;20309;-94
2022/09/24 12:17:04;;;;;;;4.77;3.30;;;13.50;99.90;;;;;;4976698;28;20210;-94
2022/09/24 12:19:45;;;;;;;4.10;2.87;;;13.40;99.90;;;;;;4973214;28;20579;-95
2022/09/24 12:22:20;;;;;;;4.03;3.03;;;13.30;99.90;;;;;;4975909;28;20253;-94
2022/09/24 12:24:56;;;;;;;5.03;3.23;;;13.30;99.90;;;;;;4979064;28;20288;-93
2022/09/24 12:27:34;;;;;;;4.47;3.13;;;13.20;99.90;;;;;;4976040;28;20600;-94
2022/09/24 12:33:10;;;;;;;4.37;3.07;;;13.10;99.90;;;;;;4975401;28;20210;-94
2022/09/24 12:36:03;;;;;;;6.10;3.43;;;13.10;99.90;;;;;;4978357;28;20325;-94
2022/09/24 12:38:38;;;;;;;5.83;3.57;;;13.00;99.90;;;;;;4980055;28;20207;-94
2022/09/24 12:41:28;;;;;;;7.17;3.60;;;13.00;99.90;;;;;;4975382;28;20215;-93
2022/09/24 12:44:04;;;;;;;6.20;3.73;;;12.90;99.90;;;;;;4981084;28;20290;-93
2022/09/24 12:46:41;;;;;;;5.77;3.30;;;12.90;99.90;;;;;;4969534;28;20215;-93
2022/09/24 12:49:24;;;;;;;3.80;3.00;;;12.80;99.90;;;;;;4981148;28;20206;-94
2022/09/24 12:52:00;;;;;;;6.40;3.47;;;12.80;99.90;;;;;;4977354;28;20214;-93
2022/09/24 12:54:33;;;;;;;3.53;3.00;;;12.70;99.90;;;;;;4978082;28;20221;-94
2022/09/24 12:57:10;;;;;;;4.50;3.60;;;12.70;99.90;;;;;;4978963;28;20663;-94
2022/09/24 12:59:50;;;;;;;3.50;3.20;;;12.70;99.90;;;;;;4978161;28;20211;-94
2022/09/24 13:02:23;;;;;;;6.20;3.80;;;12.60;99.90;;;;;;4978765;28;20270;-94
2022/09/24 13:05:17;;;;;;;4.53;3.50;;;12.60;99.90;;;;;;4978787;28;20270;-95
2022/09/24 13:08:01;;;;;;;6.30;3.40;;;12.60;99.90;;;;;;4968278;28;20212;-93
2022/09/24 13:10:34;;;;;;;7.63;3.63;;;12.50;99.90;;;;;;4959592;28;20215;-94
2022/09/24 13:13:27;;;;;;;5.33;3.60;;;12.50;99.90;;;;;;4973395;28;20209;-93
2022/09/24 13:16:04;;;;;;;4.10;3.17;;;12.50;99.90;;;;;;4978436;28;20297;-94
2022/09/24 13:18:38;;;;;;;4.27;3.23;;;12.50;99.90;;;;;;4970467;28;20203;-93
2022/09/24 13:21:19;;;;;;;4.93;3.57;;;12.50;99.90;;;;;;4975310;28;20207;-95
2022/09/24 13:23:53;;;;;;;7.30;3.37;;;12.50;99.90;;;;;;4973212;28;20219;-95
2022/09/24 13:26:34;;;;;;;4.00;3.60;;;12.40;99.90;;;;;;4968667;28;20247;-94
2022/09/24 13:29:07;;;;;;;7.13;3.40;;;12.40;99.90;;;;;;4960116;28;20215;-94
2022/09/24 13:31:46;;;;;;;4.37;3.23;;;12.40;99.90;;;;;;4972907;28;20214;-95
2022/09/24 13:34:21;;;;;;;4.30;3.37;;;12.30;99.90;;;;;;4980892;28;20551;-93
2022/09/24 13:36:59;;;;;;;4.17;3.50;;;12.30;99.90;;;;;;4978666;28;20233;-95
2022/09/24 13:39:37;;;;;;;5.97;3.43;;;12.30;99.90;;;;;;4975321;28;20204;-92
2022/09/24 13:42:19;;;;;;;5.83;3.50;;;12.30;99.90;;;;;;4979670;28;20213;-94
2022/09/24 13:44:53;;;;;;;5.23;3.93;;;12.20;99.90;;;;;;4974203;28;20211;-94
2022/09/24 13:47:30;;;;;;;5.50;3.23;;;12.20;99.90;;;;;;4962644;28;20233;-94
2022/09/24 13:50:09;;;;;;;3.77;3.37;;;12.20;99.90;;;;;;4959010;28;20211;-91
2022/09/24 13:52:45;;;;;;;5.10;3.10;;;12.20;99.90;;;;;;4969980;28;20229;-94
2022/09/24 13:55:23;;;;;;;7.03;4.23;;;12.10;99.90;;;;;;4979637;28;20209;-93
2022/09/24 13:57:55;;;;;;;5.03;3.43;;;12.20;99.90;;;;;;4980205;28;20678;-94
2022/09/24 14:00:27;;;;;;;5.63;3.90;;;12.20;99.90;;;;;;4994058;28;20214;-94
2022/09/24 14:03:02;;;;;;;5.37;3.50;;;12.20;99.90;;;;;;4982101;28;20195;-95
2022/09/24 14:05:37;;;;;;;7.57;3.83;;;12.10;99.90;;;;;;4996397;28;20237;-95
2022/09/24 14:08:10;;;;;;;5.10;3.50;;;12.10;99.90;;;;;;4997715;28;20213;-95
2022/09/24 14:10:44;;;;;;;4.77;3.43;;;12.10;99.90;;;;;;4989903;28;20290;-95
2022/09/24 14:13:21;;;;;;;6.20;3.43;;;12.10;99.90;;;;;;4972017;28;20218;-93
2022/09/24 14:15:59;;;;;;;5.87;3.67;;;12.10;99.90;;;;;;4979576;28;20270;-93
2022/09/24 14:18:30;;;;;;;4.57;3.30;;;12.00;99.90;;;;;;4979236;28;20218;-93
2022/09/24 14:21:09;;;;;;;4.33;3.50;;;12.00;99.90;;;;;;4971602;28;20314;-94
2022/09/24 14:23:44;;;;;;;5.60;3.53;;;12.00;99.90;;;;;;4969013;28;20708;-94
2022/09/24 14:26:27;;;;;;;4.03;3.33;;;12.00;99.90;;;;;;4977699;28;20236;-94
2022/09/24 14:28:59;;;;;;;4.70;4.00;;;12.00;99.90;;;;;;4978947;28;20211;-94
2022/09/24 14:31:31;;;;;;;6.27;3.63;;;12.00;99.90;;;;;;4977426;28;20207;-94
2022/09/24 14:34:06;;;;;;;6.37;3.43;;;12.10;99.90;;;;;;4981551;28;20290;-94
2022/09/24 14:36:38;;;;;;;6.47;3.57;;;12.10;99.90;;;;;;4978130;28;20213;-94
2022/09/24 14:39:12;;;;;;;4.33;3.40;;;12.10;99.90;;;;;;4978262;28;20266;-94
2022/09/24 14:41:45;;;;;;;8.83;3.77;;;12.10;99.90;;;;;;4974144;28;20215;-94
2022/09/24 14:44:23;;;;;;;5.87;3.57;;;12.10;99.90;;;;;;4995279;28;20259;-93
2022/09/24 14:46:57;;;;;;;6.17;3.77;;;12.10;99.90;;;;;;4992371;28;20258;-94
2022/09/24 14:49:31;;;;;;;7.33;4.00;;;12.20;99.90;;;;;;4995576;28;20209;-93
2022/09/24 14:52:04;;;;;;;4.37;3.60;;;12.10;99.90;;;;;;4982063;28;20206;-95
2022/09/24 14:54:36;;;;;;;4.73;4.20;;;12.20;99.90;;;;;;4969469;28;20214;-93
2022/09/24 14:57:25;;;;;;;7.43;4.30;;;12.20;99.90;;;;;;4960998;28;20272;-93
2022/09/24 14:59:56;;;;;;;7.73;4.10;;;12.20;99.90;;;;;;4968444;28;20298;-93
2022/09/24 15:02:33;;;;;;;5.53;4.47;;;12.20;99.90;;;;;;4976144;28;20214;-95
2022/09/24 15:05:08;;;;;;;7.27;4.00;;;12.30;99.90;;;;;;4976433;28;20211;-92
2022/09/24 15:07:39;;;;;;;5.60;3.63;;;12.30;99.90;;;;;;4974753;28;20586;-92